METAR Data
IDs: Format: Raw Decoded Include TAF

Data at: 1854 UTC 26 Sep 2021

METAR for:KRBW (Walterboro/Lowcountr, SC, US)
Text:KRBW 261835Z AUTO 33005KT 10SM CLR 27/13 A3010 RMK AO2
Temperature: 27.0°C ( 81°F)
Dewpoint: 13.0°C ( 55°F) [RH = 42%]
Pressure (altimeter):30.10 inches Hg (1019.4 mb)
Winds:from the NNW (330 degrees) at 6 MPH (5 knots; 2.6 m/s)
Visibility:10 or more sm (16+ km)
Ceiling:at least 12,000 feet AGL
Clouds:sky clear below 12,000 feet AGL
QC Flag:automated observation with no human augmentation

TAF for:KRBW (Walterboro/Lowcountr, SC, US)
Text:No data found